Time;durP1;ratioP1;P1;durP2;ratioP2;P2;SDS_P1;SDS_P2;PMS_P1;PMS_P2;Temp;Humidity;BMP_temperature;BMP_pressure;BME280_temperature;BME280_humidity;BME280_pressure;Samples;Min_cycle;Max_cycle;Signal;HPM_P1;HPM_P2
2022/03/02 00:00:34;;;;;;;26.30;15.60;;;;;;;4.51;61.77;102559.84;5055784;28;20028;-84
2022/03/02 00:02:59;;;;;;;27.95;15.82;;;;;;;4.48;61.32;102564.88;5056061;28;20044;-83
2022/03/02 00:05:24;;;;;;;29.05;16.50;;;;;;;4.43;61.47;102564.69;5066741;28;20025;-83
2022/03/02 00:07:50;;;;;;;26.13;15.13;;;;;;;4.42;61.73;102562.94;5075980;28;20031;-84
2022/03/02 00:10:16;;;;;;;29.23;16.83;;;;;;;4.39;62.54;102565.38;5074931;28;20028;-83
2022/03/02 00:12:41;;;;;;;30.20;17.33;;;;;;;4.34;62.30;102566.91;5075762;28;20377;-83
2022/03/02 00:15:06;;;;;;;29.42;16.80;;;;;;;4.31;62.42;102559.97;5075765;28;20032;-84
2022/03/02 00:17:32;;;;;;;28.13;15.57;;;;;;;4.31;62.06;102566.78;5074690;28;20115;-84
2022/03/02 00:19:58;;;;;;;27.13;15.13;;;;;;;4.29;62.50;102561.59;5075529;28;20054;-84
2022/03/02 00:22:23;;;;;;;25.58;13.57;;;;;;;4.27;61.90;102558.09;5075366;28;20031;-84
2022/03/02 00:24:51;;;;;;;27.67;15.70;;;;;;;4.27;61.62;102567.50;5075009;28;20048;-83
2022/03/02 00:27:20;;;;;;;28.23;15.75;;;;;;;4.26;62.56;102563.19;5075010;28;20033;-83
2022/03/02 00:29:45;;;;;;;29.15;16.05;;;;;;;4.24;62.25;102567.38;5075121;28;20037;-85
2022/03/02 00:32:11;;;;;;;27.85;16.13;;;;;;;4.20;62.47;102563.84;5073192;28;20020;-83
2022/03/02 00:34:36;;;;;;;26.30;14.30;;;;;;;4.20;62.87;102560.38;5055449;28;20039;-84
2022/03/02 00:37:01;;;;;;;25.67;14.35;;;;;;;4.17;62.48;102566.28;5055530;28;20024;-83
2022/03/02 00:39:27;;;;;;;24.23;13.52;;;;;;;4.18;62.58;102571.47;5054463;28;20075;-84
2022/03/02 00:41:52;;;;;;;27.70;14.80;;;;;;;4.12;62.41;102560.97;5055336;28;20109;-84
2022/03/02 00:44:17;;;;;;;26.58;14.68;;;;;;;4.13;62.06;102561.81;5054777;28;20120;-83
2022/03/02 00:46:43;;;;;;;25.10;13.52;;;;;;;4.11;62.08;102558.34;5054656;28;20025;-83
2022/03/02 00:49:08;;;;;;;24.95;13.25;;;;;;;4.09;62.27;102547.97;5054992;28;20037;-83
2022/03/02 00:51:37;;;;;;;24.13;13.20;;;;;;;4.06;62.39;102555.56;5055297;28;20017;-83
2022/03/02 00:54:02;;;;;;;23.60;12.80;;;;;;;4.01;62.10;102545.09;5054380;28;20033;-84
2022/03/02 00:56:27;;;;;;;25.02;13.70;;;;;;;4.02;62.42;102551.13;5054707;28;20358;-84
2022/03/02 00:58:53;;;;;;;27.15;14.02;;;;;;;3.99;61.66;102549.34;5054622;28;20104;-84
2022/03/02 01:01:18;;;;;;;24.25;12.50;;;;;;;4.00;62.43;102550.19;5063266;28;20029;-83
2022/03/02 01:03:44;;;;;;;23.90;11.75;;;;;;;3.98;62.03;102545.00;5073455;28;20020;-83
2022/03/02 01:06:10;;;;;;;24.50;12.47;;;;;;;3.98;62.38;102549.25;5074506;28;20433;-83
2022/03/02 01:08:35;;;;;;;23.58;12.05;;;;;;;3.95;62.57;102539.75;5074268;28;20099;-83
2022/03/02 01:11:01;;;;;;;24.27;12.52;;;;;;;3.91;62.15;102545.56;5074676;28;20032;-83
2022/03/02 01:13:27;;;;;;;25.05;13.05;;;;;;;3.90;62.03;102537.81;5073730;28;20484;-83
2022/03/02 01:15:52;;;;;;;25.77;13.70;;;;;;;3.84;62.35;102531.59;5074572;28;20028;-83
2022/03/02 01:18:17;;;;;;;27.25;14.82;;;;;;;3.83;62.51;102534.97;5074070;28;20017;-83
2022/03/02 01:20:43;;;;;;;25.95;14.90;;;;;;;3.79;62.34;102527.97;5074000;28;20047;-83
2022/03/02 01:23:09;;;;;;;26.33;14.38;;;;;;;3.80;62.53;102531.41;5074383;28;20050;-83
2022/03/02 01:25:34;;;;;;;25.85;13.77;;;;;;;3.77;62.46;102524.47;5067935;28;20075;-83
2022/03/02 01:28:00;;;;;;;27.25;15.70;;;;;;;3.71;61.83;102521.69;5053927;28;20014;-83
2022/03/02 01:30:25;;;;;;;27.60;15.68;;;;;;;3.71;62.29;102519.09;5072703;28;20481;-83
2022/03/02 01:32:50;;;;;;;26.65;14.40;;;;;;;3.69;62.44;102519.03;5074271;28;20540;-83
2022/03/02 01:35:16;;;;;;;27.55;15.27;;;;;;;3.71;62.20;102512.25;5072620;28;20017;-83
2022/03/02 01:37:41;;;;;;;26.15;14.15;;;;;;;3.72;62.51;102513.13;5073744;28;20051;-83
2022/03/02 01:40:09;;;;;;;25.40;14.75;;;;;;;3.70;62.11;102512.22;5073757;28;20052;-83
2022/03/02 01:42:36;;;;;;;26.52;13.93;;;;;;;3.68;62.22;102507.00;5073139;28;20017;-83
2022/03/02 01:45:03;;;;;;;26.30;14.75;;;;;;;3.67;61.70;102506.94;5073865;28;20024;-83
2022/03/02 01:47:29;;;;;;;27.55;15.05;;;;;;;3.68;61.29;102508.69;5073429;28;20035;-83
2022/03/02 01:49:57;;;;;;;27.45;15.13;;;;;;;3.69;61.30;102510.47;5073316;28;20028;-83
2022/03/02 01:52:23;;;;;;;26.02;14.48;;;;;;;3.70;61.75;102507.94;5055336;28;20032;-83
2022/03/02 01:54:48;;;;;;;27.00;14.77;;;;;;;3.67;60.97;102507.81;5053957;28;20021;-83
2022/03/02 01:57:14;;;;;;;26.15;13.80;;;;;;;3.67;61.17;102504.38;5061781;28;20048;-83
2022/03/02 01:59:40;;;;;;;24.85;13.40;;;;;;;3.66;61.45;102500.06;5073558;28;20495;-84
2022/03/02 02:02:05;;;;;;;27.88;15.10;;;;;;;3.65;61.10;102504.31;5073385;28;20024;-83
2022/03/02 02:04:31;;;;;;;28.45;14.98;;;;;;;3.64;60.93;102502.56;5072448;28;20032;-83
2022/03/02 02:06:56;;;;;;;28.50;15.75;;;;;;;3.63;61.11;102503.38;5073961;28;20551;-83
2022/03/02 02:09:22;;;;;;;27.00;15.18;;;;;;;3.63;60.71;102494.78;5073196;28;20040;-83
2022/03/02 02:11:47;;;;;;;27.65;15.82;;;;;;;3.64;60.94;102491.41;5058127;28;20032;-83
2022/03/02 02:14:12;;;;;;;26.05;14.35;;;;;;;3.63;60.40;102487.97;5053467;28;20492;-83
2022/03/02 02:16:38;;;;;;;27.02;14.38;;;;;;;3.65;60.84;102483.78;5052406;28;20032;-83
2022/03/02 02:19:03;;;;;;;24.48;12.75;;;;;;;3.63;61.02;102477.72;5053453;28;20087;-83
2022/03/02 02:21:29;;;;;;;25.70;14.20;;;;;;;3.62;60.69;102482.75;5053023;28;20346;-84
2022/03/02 02:23:54;;;;;;;27.20;15.10;;;;;;;3.59;60.41;102488.66;5052910;28;20029;-83
2022/03/02 02:26:21;;;;;;;25.38;13.77;;;;;;;3.61;61.10;102488.72;5070437;28;20039;-83
2022/03/02 02:28:47;;;;;;;;;;;;;;;3.60;60.65;102484.41;5073567;28;20439;-83
2022/03/02 02:31:12;;;;;;;26.70;13.45;;;;;;;3.61;60.96;102475.88;5071969;28;19916;-83
2022/03/02 02:33:38;;;;;;;24.55;12.77;;;;;;;3.60;60.94;102474.16;5073239;28;20459;-84
2022/03/02 02:36:03;;;;;;;24.92;13.30;;;;;;;3.60;60.97;102474.16;5092799;28;20012;-83
2022/03/02 02:38:29;;;;;;;24.73;13.32;;;;;;;3.52;60.66;102467.00;5074983;28;20025;-83
2022/03/02 02:40:54;;;;;;;25.42;13.40;;;;;;;3.55;60.33;102474.81;5082300;28;20031;-84
2022/03/02 02:43:22;;;;;;;26.50;14.00;;;;;;;3.55;60.49;102472.25;5073276;28;20033;-83
2022/03/02 02:45:47;;;;;;;26.48;14.15;;;;;;;3.55;61.09;102468.81;5072895;28;20029;-82
2022/03/02 02:48:13;;;;;;;23.02;11.93;;;;;;;3.54;61.23;102464.50;5079453;28;20483;-84
2022/03/02 02:50:38;;;;;;;21.85;11.20;;;;;;;3.56;61.77;102465.41;5073278;28;20037;-84
2022/03/02 02:53:10;;;;;;;22.02;11.07;;;;;;;3.54;61.15;102462.81;5072683;28;20021;-84
2022/03/02 02:55:36;;;;;;;22.45;11.13;;;;;;;3.54;61.09;102464.50;5053203;28;20453;-83
2022/03/02 02:58:03;;;;;;;24.42;12.88;;;;;;;3.50;60.43;102460.06;5052984;28;20124;-83
2022/03/02 03:00:32;;;;;;;23.05;11.60;;;;;;;3.53;61.27;102470.47;5051967;28;20068;-83
2022/03/02 03:02:58;;;;;;;23.17;11.52;;;;;;;3.50;61.42;102460.91;5052617;28;20025;-83
2022/03/02 03:05:28;;;;;;;21.02;10.48;;;;;;;3.49;61.29;102461.72;5052350;28;20025;-83
2022/03/02 03:07:53;;;;;;;20.95;10.10;;;;;;;3.50;61.26;102460.91;5052058;28;20469;-83
2022/03/02 03:10:19;;;;;;;21.42;10.75;;;;;;;3.48;60.73;102464.25;5052185;28;20037;-84
2022/03/02 03:12:46;;;;;;;20.13;9.95;;;;;;;3.48;61.58;102460.00;5052341;28;20108;-83
2022/03/02 03:15:13;;;;;;;19.77;8.98;;;;;;;3.47;60.97;102457.34;5052859;28;20021;-83
2022/03/02 03:17:39;;;;;;;19.85;9.07;;;;;;;3.47;61.10;102460.81;5060960;28;20123;-83
2022/03/02 03:20:07;;;;;;;20.75;10.07;;;;;;;3.47;61.17;102462.50;5071063;28;20036;-84
2022/03/02 03:22:33;;;;;;;20.33;9.27;;;;;;;3.45;60.87;102456.41;5052546;28;20036;-83
2022/03/02 03:24:59;;;;;;;20.17;10.02;;;;;;;3.44;61.20;102458.13;5052345;28;20041;-84
2022/03/02 03:27:25;;;;;;;21.90;9.80;;;;;;;3.39;60.29;102449.34;5055493;28;20108;-83
2022/03/02 03:29:50;;;;;;;20.63;10.15;;;;;;;3.39;60.67;102460.50;5056299;28;20386;-83
2022/03/02 03:32:16;;;;;;;21.25;10.40;;;;;;;3.38;60.81;102453.63;5056656;28;20107;-84
2022/03/02 03:34:41;;;;;;;20.95;10.25;;;;;;;3.33;60.84;102465.38;5055937;28;20017;-83
2022/03/02 03:37:07;;;;;;;21.40;9.98;;;;;;;3.30;61.25;102457.56;5056216;28;20033;-83
2022/03/02 03:39:32;;;;;;;22.63;10.98;;;;;;;3.29;60.64;102452.34;5056131;28;20081;-83
2022/03/02 03:41:57;;;;;;;23.38;11.25;;;;;;;3.24;60.75;102452.16;5055667;28;20104;-83
2022/03/02 03:44:24;;;;;;;21.83;11.02;;;;;;;3.24;61.43;102452.16;5056205;28;20377;-83
2022/03/02 03:46:49;;;;;;;21.33;11.27;;;;;;;3.21;60.86;102452.94;5056270;28;20098;-83
2022/03/02 03:49:15;;;;;;;20.65;10.02;;;;;;;3.22;61.46;102449.56;5061771;28;20062;-84
2022/03/02 03:51:40;;;;;;;19.27;8.70;;;;;;;3.16;61.63;102435.59;5063812;28;20080;-83
2022/03/02 03:54:06;;;;;;;18.23;8.15;;;;;;;3.17;61.69;102448.47;5056323;28;20028;-83
2022/03/02 03:56:31;;;;;;;19.20;8.93;;;;;;;3.14;61.71;102440.69;5054921;28;20025;-83
2022/03/02 03:59:00;;;;;;;17.30;8.05;;;;;;;3.15;61.52;102445.00;5056297;28;20028;-83
2022/03/02 04:01:26;;;;;;;16.05;7.20;;;;;;;3.13;61.49;102441.47;5065363;28;20035;-83
2022/03/02 04:03:51;;;;;;;17.73;8.07;;;;;;;3.13;61.40;102448.28;5075166;28;20115;-83
2022/03/02 04:06:17;;;;;;;19.67;9.45;;;;;;;3.09;61.61;102443.06;5075359;28;20111;-83
2022/03/02 04:08:43;;;;;;;23.40;11.75;;;;;;;3.00;60.88;102439.22;5075930;28;20384;-83
2022/03/02 04:11:08;;;;;;;23.95;11.75;;;;;;;3.00;60.89;102436.66;5074899;28;20361;-83
2022/03/02 04:13:34;;;;;;;23.42;11.60;;;;;;;2.99;61.19;102430.63;5063771;28;20090;-83
2022/03/02 04:15:59;;;;;;;21.23;10.82;;;;;;;2.96;61.55;102433.09;5055843;28;20476;-84
2022/03/02 04:18:24;;;;;;;21.75;10.35;;;;;;;2.96;61.64;102435.66;5054884;28;20354;-83
2022/03/02 04:20:51;;;;;;;19.80;9.38;;;;;;;2.95;62.12;102423.63;5055847;28;20029;-83
2022/03/02 04:23:16;;;;;;;21.83;11.27;;;;;;;2.95;61.42;102423.63;5054423;28;20017;-83
2022/03/02 04:25:41;;;;;;;22.35;11.35;;;;;;;2.93;62.00;102425.25;5069486;28;20039;-84
2022/03/02 04:28:07;;;;;;;22.38;11.63;;;;;;;2.90;61.74;102420.00;5075528;28;20036;-83
2022/03/02 04:30:32;;;;;;;21.92;11.02;;;;;;;2.89;61.27;102414.00;5074136;28;20045;-83
2022/03/02 04:33:00;;;;;;;23.75;11.93;;;;;;;2.85;61.04;102409.53;5075497;28;20024;-83
2022/03/02 04:35:26;;;;;;;22.25;11.18;;;;;;;2.86;61.91;102413.88;5075399;28;20025;-83
2022/03/02 04:37:52;;;;;;;20.90;9.80;;;;;;;2.86;61.62;102416.44;5059851;28;20122;-83
2022/03/02 04:40:18;;;;;;;21.20;10.20;;;;;;;2.85;61.78;102417.22;5054822;28;20389;-83
2022/03/02 04:42:43;;;;;;;22.10;11.07;;;;;;;2.83;61.54;102411.16;5055279;28;20033;-83
2022/03/02 04:45:10;;;;;;;20.60;9.40;;;;;;;2.83;61.64;102411.16;5054878;28;20028;-83
2022/03/02 04:47:35;;;;;;;19.38;9.05;;;;;;;2.81;61.75;102402.56;5055043;28;20036;-83
2022/03/02 04:50:00;;;;;;;19.40;8.85;;;;;;;2.82;61.62;102400.84;5071719;28;20391;-83
2022/03/02 04:52:26;;;;;;;21.38;10.02;;;;;;;2.78;61.68;102402.41;5074229;28;20051;-83
2022/03/02 04:55:06;;;;;;;21.00;10.00;;;;;;;2.78;61.86;102405.84;5075056;28;20557;-83
2022/03/02 04:57:34;;;;;;;21.30;10.55;;;;;;;2.76;61.74;102404.03;5074963;28;20033;-83
2022/03/02 04:59:59;;;;;;;21.52;10.63;;;;;;;2.73;61.82;102403.91;5074201;28;20025;-83
2022/03/02 05:02:24;;;;;;;21.83;10.95;;;;;;;2.68;61.79;102395.16;5065489;28;20116;-83
2022/03/02 05:04:50;;;;;;;22.88;11.23;;;;;;;2.66;61.14;102392.50;5074656;28;20036;-83
2022/03/02 05:07:16;;;;;;;20.52;10.38;;;;;;;2.67;61.70;102401.09;5073899;28;20027;-83
2022/03/02 05:09:42;;;;;;;22.30;10.95;;;;;;;2.66;61.47;102401.91;5074614;28;20024;-83
2022/03/02 05:12:07;;;;;;;21.05;10.50;;;;;;;2.63;61.71;102395.81;5073912;28;20028;-83
2022/03/02 05:14:33;;;;;;;22.33;10.57;;;;;;;2.63;61.34;102398.38;5053730;28;20381;-83
2022/03/02 05:16:58;;;;;;;20.83;9.88;;;;;;;2.63;61.70;102397.53;5054519;28;20350;-84
2022/03/02 05:19:23;;;;;;;22.27;10.70;;;;;;;2.58;61.68;102392.19;5053660;28;20098;-83
2022/03/02 05:21:49;;;;;;;21.90;10.50;;;;;;;2.58;61.77;102392.19;5054597;28;20021;-84
2022/03/02 05:24:14;;;;;;;22.88;10.95;;;;;;;2.55;61.55;102392.06;5055476;28;20055;-84
2022/03/02 05:26:40;;;;;;;22.38;10.88;;;;;;;2.55;61.77;102389.50;5053099;28;20473;-84
2022/03/02 05:29:08;;;;;;;20.98;9.93;;;;;;;2.55;61.53;102386.94;5054148;28;20179;-84
2022/03/02 05:31:34;;;;;;;19.88;9.70;;;;;;;2.55;61.61;102384.38;5053773;28;20473;-84
2022/03/02 05:33:59;;;;;;;18.35;8.90;;;;;;;2.50;61.92;102373.03;5068818;28;20056;-84
2022/03/02 05:36:25;;;;;;;19.95;8.98;;;;;;;2.54;61.80;102381.72;5067267;28;20032;-84
2022/03/02 05:38:52;;;;;;;18.23;8.13;;;;;;;2.52;61.56;102379.09;5054652;28;20104;-83
2022/03/02 05:41:17;;;;;;;18.25;7.97;;;;;;;2.54;61.25;102382.63;5053360;28;20032;-83
2022/03/02 05:43:43;;;;;;;17.80;7.57;;;;;;;2.51;61.29;102381.63;5054167;28;20021;-83
2022/03/02 05:46:08;;;;;;;17.75;7.78;;;;;;;2.50;61.28;102375.59;5054053;28;20047;-83
2022/03/02 05:48:33;;;;;;;19.50;8.95;;;;;;;2.47;61.18;102378.06;5060873;28;20036;-83
2022/03/02 05:50:58;;;;;;;19.60;8.90;;;;;;;2.46;61.15;102379.72;5073783;28;20028;-83
2022/03/02 05:53:24;;;;;;;21.52;9.60;;;;;;;2.42;60.77;102376.97;5073274;28;20032;-83
2022/03/02 05:55:49;;;;;;;22.08;11.20;;;;;;;2.39;60.80;102377.72;5054915;28;20021;-83
2022/03/02 05:58:14;;;;;;;20.98;9.90;;;;;;;2.39;61.18;102377.72;5073657;28;20028;-83
2022/03/02 06:00:41;;;;;;;20.95;9.70;;;;;;;2.34;61.28;102375.75;5072807;28;20476;-83
2022/03/02 06:03:07;;;;;;;20.95;9.48;;;;;;;2.35;61.28;102385.22;5072962;28;20025;-83
2022/03/02 06:05:32;;;;;;;19.70;9.27;;;;;;;2.34;61.13;102384.31;5073363;28;20075;-83
2022/03/02 06:07:58;;;;;;;21.30;10.40;;;;;;;2.31;61.44;102382.50;5073749;28;20056;-83
2022/03/02 06:10:23;;;;;;;22.13;9.90;;;;;;;2.31;61.62;102382.50;5072035;28;20082;-82
2022/03/02 06:12:49;;;;;;;21.90;9.82;;;;;;;2.29;61.95;102384.13;5058724;28;20029;-83
2022/03/02 06:15:14;;;;;;;19.77;9.20;;;;;;;2.28;61.68;102381.50;5053450;28;20028;-83
2022/03/02 06:17:41;;;;;;;22.70;11.00;;;;;;;2.24;60.91;102382.16;5052517;28;20052;-83
2022/03/02 06:20:07;;;;;;;;;;;;;;;2.22;60.78;102389.78;5053595;28;20032;-83
2022/03/02 06:22:32;;;;;;;26.27;12.63;;;;;;;2.20;61.30;102391.41;5052971;28;20365;-82
2022/03/02 06:24:58;;;;;;;24.45;11.90;;;;;;;2.19;61.45;102394.78;5067690;28;20107;-83
2022/03/02 06:27:24;;;;;;;23.73;11.52;;;;;;;2.19;61.55;102394.78;5073678;28;20036;-84
2022/03/02 06:29:49;;;;;;;23.67;11.63;;;;;;;2.20;61.60;102393.97;5072109;28;20048;-83
2022/03/02 06:32:15;;;;;;;21.17;10.57;;;;;;;2.18;61.25;102387.03;5073417;28;20038;-84
2022/03/02 06:34:41;;;;;;;25.27;12.32;;;;;;;2.17;61.57;102391.25;5073125;28;20020;-83
2022/03/02 06:37:06;;;;;;;23.95;11.55;;;;;;;2.16;61.98;102392.06;5055729;28;20186;-82
2022/03/02 06:39:32;;;;;;;22.27;10.38;;;;;;;2.19;61.82;102389.66;5052930;28;20036;-82
2022/03/02 06:42:04;;;;;;;22.73;10.52;;;;;;;2.17;61.25;102393.81;5053161;28;20021;-84
2022/03/02 06:44:55;;;;;;;23.70;11.88;;;;;;;2.18;61.57;102394.72;5056745;28;20099;-82
2022/03/02 06:47:27;;;;;;;22.05;11.60;;;;;;;2.22;61.02;102391.47;5072401;28;20036;-81
2022/03/02 06:50:04;;;;;;;21.85;10.75;;;;;;;2.30;60.96;102401.25;5073179;28;20104;-80
2022/03/02 06:52:34;;;;;;;19.85;9.65;;;;;;;2.36;61.25;102400.63;5072422;28;20368;-84
2022/03/02 06:55:03;;;;;;;23.33;11.02;;;;;;;2.34;60.18;102409.06;5064680;28;20056;-85
2022/03/02 06:57:29;;;;;;;21.27;10.07;;;;;;;2.31;61.34;102402.09;5052518;28;20381;-85
2022/03/02 07:00:00;;;;;;;20.83;10.00;;;;;;;2.36;61.17;102405.75;5051264;28;20021;-85
2022/03/02 07:02:50;;;;;;;20.70;9.57;;;;;;;2.37;61.02;102404.06;5053148;28;20025;-84
2022/03/02 07:05:17;;;;;;;20.42;10.02;;;;;;;2.41;61.15;102411.97;5057122;28;20082;-85
2022/03/02 07:07:42;;;;;;;22.75;10.93;;;;;;;2.42;60.42;102405.16;5066675;28;20111;-85
2022/03/02 07:10:09;;;;;;;22.95;11.43;;;;;;;2.41;60.66;102408.53;5072554;28;20163;-85
2022/03/02 07:12:35;;;;;;;23.95;11.50;;;;;;;2.38;59.18;102410.94;5071812;28;20035;-85
2022/03/02 07:15:01;;;;;;;23.00;12.13;;;;;;;2.36;59.38;102404.91;5072541;28;20029;-85
2022/03/02 07:17:27;;;;;;;22.70;11.17;;;;;;;2.38;60.42;102405.81;5072626;28;20039;-85
2022/03/02 07:19:52;;;;;;;23.77;12.52;;;;;;;2.31;60.16;102408.13;5072052;28;20025;-85
2022/03/02 07:22:22;;;;;;;23.05;11.20;;;;;;;2.36;60.54;102415.16;5070164;28;20431;-83
2022/03/02 07:24:53;;;;;;;23.02;12.00;;;;;;;2.35;59.86;102413.41;5072505;28;20028;-84
2022/03/02 07:27:20;;;;;;;23.88;12.18;;;;;;;2.34;59.93;102407.38;5071655;28;20031;-83
2022/03/02 07:29:49;;;;;;;24.58;11.75;;;;;;;2.37;59.81;102407.53;5071637;28;20049;-84
2022/03/02 07:32:21;;;;;;;25.08;12.95;;;;;;;2.39;59.58;102413.59;5072485;28;20038;-83
2022/03/02 07:34:46;;;;;;;21.05;10.85;;;;;;;2.44;60.47;102416.34;5057808;28;20029;-81
2022/03/02 07:37:12;;;;;;;22.60;11.48;;;;;;;2.46;59.87;102407.06;5052750;28;20120;-82
2022/03/02 07:39:39;;;;;;;20.95;10.45;;;;;;;2.50;60.15;102414.03;5053068;28;20033;-83
2022/03/02 07:42:04;;;;;;;24.02;12.23;;;;;;;2.53;59.84;102415.88;5052206;28;20033;-86
2022/03/02 07:44:29;;;;;;;22.90;11.93;;;;;;;2.57;59.39;102405.81;5052282;28;20029;-84
2022/03/02 07:46:57;;;;;;;21.10;10.50;;;;;;;2.64;60.15;102406.97;5052096;28;20508;-82
2022/03/02 07:49:22;;;;;;;21.45;10.32;;;;;;;2.71;59.56;102402.94;5051317;28;20032;-85
2022/03/02 07:51:51;;;;;;;21.52;10.65;;;;;;;2.76;58.74;102399.75;5052736;28;20017;-87
2022/03/02 07:54:19;;;;;;;22.02;10.40;;;;;;;2.86;59.22;102407.88;5052463;28;20120;-85
2022/03/02 07:56:46;;;;;;;21.42;10.63;;;;;;;2.91;57.92;102401.22;5052780;28;20113;-84
2022/03/02 07:59:12;;;;;;;20.85;10.10;;;;;;;2.95;58.36;102400.56;5053189;28;20040;-84
2022/03/02 08:01:38;;;;;;;21.23;10.43;;;;;;;3.03;56.79;102403.44;5051902;28;20052;-85
2022/03/02 08:04:07;;;;;;;21.77;10.57;;;;;;;3.09;56.77;102409.69;5059724;28;20016;-85
2022/03/02 08:06:39;;;;;;;22.27;10.70;;;;;;;3.14;55.34;102401.28;5070107;28;20029;-84
2022/03/02 08:09:06;;;;;;;23.40;11.70;;;;;;;3.19;55.29;102390.41;5051440;28;20040;-87
2022/03/02 08:11:32;;;;;;;;;;;;;;;3.30;56.39;102395.97;5053234;28;20480;-82
2022/03/02 08:13:59;;;;;;;23.75;11.85;;;;;;;3.36;55.96;102393.66;5056864;28;19916;-84
2022/03/02 08:16:26;;;;;;;22.23;11.07;;;;;;;3.46;55.10;102394.00;5054521;28;20492;-84
2022/03/02 08:18:51;;;;;;;22.50;11.73;;;;;;;3.54;55.26;102388.34;5055587;28;20025;-83
2022/03/02 08:21:21;;;;;;;21.17;10.98;;;;;;;3.62;55.31;102380.06;5056154;28;20021;-81
2022/03/02 08:23:49;;;;;;;22.20;11.10;;;;;;;3.76;53.82;102389.16;5054929;28;20037;-82
2022/03/02 08:26:19;;;;;;;22.20;10.60;;;;;;;3.85;55.18;102386.09;5054244;28;20432;-82
2022/03/02 08:28:46;;;;;;;21.77;11.52;;;;;;;3.96;55.68;102386.47;5055699;28;20048;-82
2022/03/02 08:31:11;;;;;;;;;;;;;;;4.06;55.09;102396.25;5055825;28;20109;-83
2022/03/02 08:33:41;;;;;;;20.53;10.37;;;;;;;4.14;54.85;102387.16;5054956;28;20110;-83
2022/03/02 08:36:09;;;;;;;22.75;11.50;;;;;;;4.22;53.58;102383.97;5069177;28;20202;-85
2022/03/02 08:38:40;;;;;;;21.38;11.07;;;;;;;4.28;54.01;102385.06;5074575;28;20021;-84
2022/03/02 08:41:07;;;;;;;21.80;11.05;;;;;;;4.39;54.94;102380.28;5074932;28;20092;-84
2022/03/02 08:43:34;;;;;;;19.80;10.10;;;;;;;4.50;53.08;102380.69;5074510;28;20020;-85
2022/03/02 08:46:00;;;;;;;21.25;11.15;;;;;;;4.56;52.80;102378.31;5075209;28;20036;-84
2022/03/02 08:48:25;;;;;;;22.00;10.98;;;;;;;4.62;54.09;102380.22;5069058;28;20025;-86
2022/03/02 08:50:55;;;;;;;19.83;10.05;;;;;;;4.74;52.99;102372.91;5074689;28;20032;-86
2022/03/02 08:53:24;;;;;;;20.00;9.93;;;;;;;4.89;53.62;102374.25;5075155;28;20054;-86
2022/03/02 08:55:51;;;;;;;19.55;9.52;;;;;;;4.97;52.16;102379.66;5075398;28;20029;-86
2022/03/02 08:58:19;;;;;;;18.55;8.75;;;;;;;5.08;53.04;102371.44;5074184;28;20025;-86
2022/03/02 09:00:46;;;;;;;19.95;9.65;;;;;;;5.20;49.65;102370.09;5075166;28;20067;-87
2022/03/02 09:03:15;;;;;;;20.25;11.10;;;;;;;5.23;50.02;102371.09;5070022;28;20017;-87
2022/03/02 09:05:41;;;;;;;21.73;11.18;;;;;;;5.30;49.12;102374.69;5054291;28;20040;-84
2022/03/02 09:08:06;;;;;;;20.95;10.73;;;;;;;5.39;48.31;102372.44;5054807;28;20397;-84
2022/03/02 09:10:32;;;;;;;21.10;10.75;;;;;;;5.49;48.39;102370.13;5054689;28;20040;-84
2022/03/02 09:12:59;;;;;;;23.00;12.23;;;;;;;5.54;46.62;102366.88;5054004;28;20025;-84
2022/03/02 09:15:25;;;;;;;22.77;11.88;;;;;;;5.61;47.54;102367.94;5054228;28;20024;-83
2022/03/02 09:17:51;;;;;;;20.13;10.52;;;;;;;5.71;49.12;102374.22;5054696;28;20083;-84
2022/03/02 09:20:16;;;;;;;20.15;10.18;;;;;;;5.85;49.65;102364.31;5053590;28;20029;-84
2022/03/02 09:22:41;;;;;;;22.85;12.45;;;;;;;6.01;46.27;102365.66;5054031;28;20033;-83
2022/03/02 09:25:08;;;;;;;21.85;12.20;;;;;;;6.06;47.29;102370.94;5055225;28;20401;-85
2022/03/02 09:27:38;;;;;;;21.58;11.38;;;;;;;6.15;47.49;102372.06;5054728;28;20033;-83
2022/03/02 09:30:06;;;;;;;22.02;11.77;;;;;;;6.18;47.25;102364.41;5054006;28;20045;-83
2022/03/02 09:32:32;;;;;;;20.65;10.90;;;;;;;6.30;48.54;102363.00;5053642;28;20029;-81
2022/03/02 09:35:04;;;;;;;21.47;10.93;;;;;;;6.43;48.09;102361.63;5054114;28;20013;-83
2022/03/02 09:37:36;;;;;;;19.48;10.40;;;;;;;6.57;48.49;102360.28;5054183;28;20268;-83
2022/03/02 09:40:04;;;;;;;19.15;10.10;;;;;;;6.74;49.11;102357.25;5053410;28;20461;-83
2022/03/02 09:42:34;;;;;;;17.58;8.35;;;;;;;6.88;49.04;102350.72;5053407;28;20025;-83
2022/03/02 09:45:06;;;;;;;20.83;11.90;;;;;;;6.93;43.33;102353.41;5054534;28;20029;-84
2022/03/02 09:47:53;;;;;;;22.13;11.68;;;;;;;6.95;43.62;102344.88;5053087;28;20095;-83
2022/03/02 09:50:20;;;;;;;20.33;10.07;;;;;;;7.07;47.37;102348.59;5053341;28;20031;-83
2022/03/02 09:52:48;;;;;;;21.15;10.45;;;;;;;7.24;45.07;102331.75;5053974;28;20032;-84
2022/03/02 09:55:21;;;;;;;20.52;10.32;;;;;;;7.40;45.44;102337.28;5053500;28;20483;-84
2022/03/02 09:57:49;;;;;;;21.52;11.57;;;;;;;7.50;45.68;102340.91;5054092;28;20032;-85
2022/03/02 10:00:18;;;;;;;20.13;10.48;;;;;;;7.61;43.37;102338.59;5053623;28;20473;-83
2022/03/02 10:02:50;;;;;;;20.15;10.63;;;;;;;7.71;44.77;102336.19;5053239;28;20473;-87
2022/03/02 10:05:21;;;;;;;19.55;9.68;;;;;;;7.86;44.28;102335.66;5053614;28;20028;-83
2022/03/02 10:08:00;;;;;;;20.73;9.93;;;;;;;8.01;42.74;102334.19;5053261;28;20107;-83
2022/03/02 10:10:36;;;;;;;22.83;11.63;;;;;;;8.00;42.49;102337.63;5053096;28;20484;-83
2022/03/02 10:13:14;;;;;;;21.63;11.38;;;;;;;8.02;43.12;102338.53;5054505;28;20492;-83
2022/03/02 10:15:44;;;;;;;21.52;11.65;;;;;;;7.91;41.81;102332.28;5052406;28;20025;-83
2022/03/02 10:18:13;;;;;;;22.10;11.57;;;;;;;7.92;44.23;102327.16;5330840;22;20101;-83
2022/03/02 10:20:49;;;;;;;22.63;11.15;;;;;;;8.07;45.01;102339.50;5073238;28;20374;-86
2022/03/02 10:23:30;;;;;;;22.13;11.63;;;;;;;8.16;41.75;102339.69;5053989;28;20120;-85
2022/03/02 10:26:08;;;;;;;21.05;11.07;;;;;;;8.27;44.41;102339.00;5054867;28;20295;-85
2022/03/02 10:28:43;;;;;;;17.67;9.25;;;;;;;8.44;42.60;102334.13;5059004;28;20082;-86
2022/03/02 10:31:30;;;;;;;19.25;10.20;;;;;;;8.60;41.28;102333.59;5058396;28;20037;-86
2022/03/02 10:34:01;;;;;;;20.38;10.85;;;;;;;8.71;40.63;102332.91;5055546;28;20037;-86
2022/03/02 10:36:29;;;;;;;20.48;9.88;;;;;;;8.81;41.64;102324.44;5052368;28;20036;-86
2022/03/02 10:39:00;;;;;;;19.30;10.07;;;;;;;8.98;42.24;102326.41;5053107;28;20167;-85
2022/03/02 10:41:27;;;;;;;20.65;11.15;;;;;;;9.03;41.04;102314.41;5052969;28;20040;-85
2022/03/02 10:43:59;;;;;;;21.85;11.50;;;;;;;8.93;39.83;102318.56;5052596;28;20021;-84
2022/03/02 10:46:26;;;;;;;21.63;11.07;;;;;;;8.90;41.21;102321.09;5053665;28;20107;-84
2022/03/02 10:49:04;;;;;;;19.38;10.43;;;;;;;8.99;41.85;102318.69;5071982;28;20513;-85
2022/03/02 10:51:33;;;;;;;20.15;10.88;;;;;;;8.99;40.10;102312.59;5072415;28;20040;-86
2022/03/02 10:54:02;;;;;;;21.85;11.18;;;;;;;9.10;38.92;102319.72;5073067;28;20021;-88
2022/03/02 10:56:33;;;;;;;19.63;10.70;;;;;;;9.20;41.17;102319.84;5073123;28;20119;-81
2022/03/02 10:59:02;;;;;;;19.83;10.52;;;;;;;9.29;39.25;102314.78;5072374;28;20031;-88
2022/03/02 11:01:27;;;;;;;19.08;9.15;;;;;;;9.43;41.71;102321.03;5074530;28;20590;-90
2022/03/02 11:03:53;;;;;;;20.10;10.47;;;;;;;9.52;38.70;102316.81;5073120;28;20021;-84
2022/03/02 11:06:22;;;;;;;20.03;10.40;;;;;;;9.50;40.79;102314.19;5072074;28;20457;-83
2022/03/02 11:08:49;;;;;;;20.33;10.55;;;;;;;9.45;42.34;102300.28;5072652;28;20028;-83
2022/03/02 11:11:15;;;;;;;22.48;11.68;;;;;;;9.52;40.00;102311.63;5072075;28;20028;-84
2022/03/02 11:13:42;;;;;;;20.75;11.07;;;;;;;9.39;39.16;102306.28;5073097;28;20028;-84
2022/03/02 11:16:08;;;;;;;;;;;;;;;9.49;40.31;102306.38;5061280;28;20075;-84
2022/03/02 11:18:50;;;;;;;20.17;9.67;;;;;;;9.64;39.04;102298.81;5052625;28;19921;-84